createdAt,value
2023-08-09T00:01:57.983Z,99587.34
2023-08-09T00:04:25.520Z,99601.09
2023-08-09T00:06:52.915Z,99592.53
2023-08-09T00:09:22.191Z,99604.28
2023-08-09T00:11:49.620Z,99606.81
2023-08-09T00:14:17.201Z,99608.69
2023-08-09T00:16:44.607Z,99598.13
2023-08-09T00:19:12.354Z,99609.75
2023-08-09T00:21:39.654Z,99612.09
2023-08-09T00:24:07.548Z,99618.31
2023-08-09T00:26:34.926Z,99614.97
2023-08-09T00:29:03.695Z,99627.44
2023-08-09T00:31:31.177Z,99633.28
2023-08-09T00:33:59.810Z,99625.88
2023-08-09T00:36:28.399Z,99631.97
2023-08-09T00:38:55.998Z,99641.59
2023-08-09T00:41:23.362Z,99627.44
2023-08-09T00:43:51.057Z,99632.47
2023-08-09T00:46:19.289Z,99627.50
2023-08-09T00:48:47.032Z,99635.34
2023-08-09T00:51:14.557Z,99627.81
2023-08-09T00:53:43.054Z,99632.88
2023-08-09T00:56:10.515Z,99632.03
2023-08-09T00:58:38.204Z,99629.41
2023-08-09T01:01:05.534Z,99626.50
2023-08-09T01:03:33.519Z,99639.38
2023-08-09T01:06:09.429Z,99623.19
2023-08-09T01:08:44.705Z,99627.75
2023-08-09T01:11:20.210Z,99625.84
2023-08-09T01:13:52.790Z,99629.03
2023-08-09T01:16:22.433Z,99625.47
2023-08-09T01:18:53.903Z,99636.28
2023-08-09T01:21:25.422Z,99630.28
2023-08-09T01:23:53.999Z,99627.56
2023-08-09T01:26:21.395Z,99630.28
2023-08-09T01:28:49.856Z,99628.09
2023-08-09T01:31:17.252Z,99633.31
2023-08-09T01:33:46.388Z,99625.25
2023-08-09T01:36:28.011Z,99633.38
2023-08-09T01:39:01.952Z,99638.41
2023-08-09T01:41:30.148Z,99647.19
2023-08-09T01:43:58.189Z,99634.59
2023-08-09T01:46:27.086Z,99631.41
2023-08-09T01:49:12.251Z,99635.31
2023-08-09T01:51:40.525Z,99638.34
2023-08-09T01:54:09.750Z,99638.22
2023-08-09T01:56:37.216Z,99649.00
2023-08-09T01:59:07.003Z,99647.13
2023-08-09T02:01:34.449Z,99634.31
2023-08-09T02:04:04.851Z,99637.88
2023-08-09T02:06:33.752Z,99634.47
2023-08-09T02:09:02.714Z,99635.53
2023-08-09T02:11:30.100Z,99643.94
2023-08-09T02:13:57.746Z,99642.56
2023-08-09T02:16:25.188Z,99639.22
2023-08-09T02:18:52.931Z,99624.69
2023-08-09T02:21:20.230Z,99635.31
2023-08-09T02:23:47.915Z,99634.47
2023-08-09T02:26:16.846Z,99639.03
2023-08-09T02:28:44.641Z,99642.56
2023-08-09T02:31:12.740Z,99640.72
2023-08-09T02:33:40.341Z,99645.25
2023-08-09T02:36:07.702Z,99641.91
2023-08-09T02:38:36.939Z,99652.00
2023-08-09T02:41:07.411Z,99650.66
2023-08-09T02:43:35.080Z,99647.47
2023-08-09T02:46:02.610Z,99642.25
2023-08-09T02:48:30.218Z,99646.44
2023-08-09T02:50:57.740Z,99650.16
2023-08-09T02:53:34.453Z,99637.19
2023-08-09T02:56:02.118Z,99654.19
2023-08-09T02:58:29.870Z,99654.03
2023-08-09T03:00:57.183Z,99660.78
2023-08-09T03:03:25.347Z,99649.00
2023-08-09T03:05:52.749Z,99654.03
2023-08-09T03:08:20.457Z,99660.44
2023-08-09T03:10:49.771Z,99653.84
2023-08-09T03:13:17.664Z,99661.44
2023-08-09T03:15:45.017Z,99660.06
2023-08-09T03:18:12.852Z,99655.88
2023-08-09T03:20:40.218Z,99658.41
2023-08-09T03:23:10.672Z,99673.88
2023-08-09T03:25:38.572Z,99671.84
2023-08-09T03:28:06.515Z,99673.38
2023-08-09T03:30:34.491Z,99666.34
2023-08-09T03:33:02.614Z,99670.19
2023-08-09T03:35:31.120Z,99665.66
2023-08-09T03:37:59.182Z,99664.59
2023-08-09T03:40:26.654Z,99675.22
2023-08-09T03:42:55.615Z,99679.56
2023-08-09T03:45:23.771Z,99675.44
2023-08-09T03:47:53.965Z,99674.94
2023-08-09T03:50:23.997Z,99663.59
2023-08-09T03:52:52.702Z,99668.59
2023-08-09T03:55:20.726Z,99672.19
2023-08-09T03:57:48.384Z,99670.72
2023-08-09T04:00:19.176Z,99670.31
2023-08-09T04:02:48.577Z,99681.59
2023-08-09T04:05:18.315Z,99685.78
2023-08-09T04:07:46.967Z,99685.31
2023-08-09T04:10:14.602Z,99680.69
2023-08-09T04:12:43.294Z,99690.03
2023-08-09T04:15:11.379Z,99695.44
2023-08-09T04:17:39.071Z,99690.34
2023-08-09T04:20:10.775Z,99691.56
2023-08-09T04:22:38.319Z,99696.31
2023-08-09T04:25:06.954Z,99695.25
2023-08-09T04:27:34.806Z,99688.75
2023-08-09T04:30:02.153Z,99690.66
2023-08-09T04:32:29.900Z,99697.63
2023-08-09T04:34:57.280Z,99701.72
2023-08-09T04:37:25.212Z,99697.38
2023-08-09T04:39:54.216Z,99707.53
2023-08-09T04:42:21.858Z,99702.59
2023-08-09T04:44:50.081Z,99707.06
2023-08-09T04:47:17.718Z,99691.22
2023-08-09T04:49:45.071Z,99694.94
2023-08-09T04:52:12.715Z,99701.25
2023-08-09T04:54:39.995Z,99705.31
2023-08-09T04:57:07.627Z,99713.00
2023-08-09T04:59:34.980Z,99710.13
2023-08-09T05:02:02.882Z,99713.63
2023-08-09T05:04:30.394Z,99715.16
2023-08-09T05:06:58.142Z,99719.66
2023-08-09T05:09:25.388Z,99716.38
2023-08-09T05:11:53.029Z,99717.53
2023-08-09T05:14:20.400Z,99722.25
2023-08-09T05:16:47.997Z,99738.75
2023-08-09T05:19:15.313Z,99731.94
2023-08-09T05:21:43.076Z,99739.47
2023-08-09T05:24:10.549Z,99743.84
2023-08-09T05:26:38.390Z,99749.34
2023-08-09T05:29:05.781Z,99760.84
2023-08-09T05:31:33.877Z,99767.31
2023-08-09T05:34:01.295Z,99775.47
2023-08-09T05:36:28.929Z,99767.88
2023-08-09T05:38:56.288Z,99772.69
2023-08-09T05:41:23.971Z,99773.44
2023-08-09T05:43:51.347Z,99776.09
2023-08-09T05:46:19.042Z,99760.66
2023-08-09T05:48:46.378Z,99768.66
2023-08-09T05:51:13.995Z,99768.44
2023-08-09T05:53:41.421Z,99770.63
2023-08-09T05:56:09.174Z,99770.25
2023-08-09T05:58:36.697Z,99780.31
2023-08-09T06:01:07.525Z,99776.34
2023-08-09T06:03:40.919Z,99779.75
2023-08-09T06:06:08.830Z,99770.03
2023-08-09T06:08:36.540Z,99767.75
2023-08-09T06:11:04.595Z,99773.47
2023-08-09T06:13:32.313Z,99766.72
2023-08-09T06:16:00.201Z,99769.13
2023-08-09T06:18:27.759Z,99781.69
2023-08-09T06:20:56.059Z,99776.06
2023-08-09T06:23:23.802Z,99781.91
2023-08-09T06:25:51.684Z,99773.25
2023-08-09T06:28:19.132Z,99778.41
2023-08-09T06:30:46.908Z,99792.66
2023-08-09T06:33:14.358Z,99784.59
2023-08-09T06:35:42.007Z,99793.09
2023-08-09T06:38:15.355Z,99790.53
2023-08-09T06:40:43.823Z,99803.97
2023-08-09T06:43:11.144Z,99799.47
2023-08-09T06:45:39.782Z,99810.91
2023-08-09T06:48:09.614Z,99812.63
2023-08-09T06:50:37.647Z,99800.88
2023-08-09T06:53:05.227Z,99814.22
2023-08-09T06:55:33.576Z,99813.19
2023-08-09T06:58:00.989Z,99804.34
2023-08-09T07:00:28.876Z,99819.94
2023-08-09T07:02:56.245Z,99815.78
2023-08-09T07:05:25.379Z,99819.72
2023-08-09T07:07:53.242Z,99817.16
2023-08-09T07:10:21.409Z,99821.19
2023-08-09T07:12:48.882Z,99809.59
2023-08-09T07:15:16.630Z,99808.81
2023-08-09T07:17:43.987Z,99828.22
2023-08-09T07:20:12.829Z,99823.56
2023-08-09T07:22:40.608Z,99827.28
2023-08-09T07:25:09.347Z,99831.31
2023-08-09T07:27:47.502Z,99823.00
2023-08-09T07:30:17.064Z,99828.97
2023-08-09T07:32:45.007Z,99832.09
2023-08-09T07:35:15.117Z,99824.19
2023-08-09T07:37:44.083Z,99835.59
2023-08-09T07:40:16.156Z,99839.22
2023-08-09T07:42:44.107Z,99840.81
2023-08-09T07:45:12.282Z,99842.19
2023-08-09T07:47:41.808Z,99839.63
2023-08-09T07:50:10.097Z,99847.13
2023-08-09T07:52:38.335Z,99852.88
2023-08-09T07:55:10.207Z,99847.97
2023-08-09T07:57:37.704Z,99865.03
2023-08-09T08:00:15.439Z,99864.06
2023-08-09T08:02:47.563Z,99869.16
2023-08-09T08:05:16.634Z,99864.88
2023-08-09T08:07:46.741Z,99871.25
2023-08-09T08:10:18.721Z,99862.78
2023-08-09T08:12:49.637Z,99863.31
2023-08-09T08:15:19.693Z,99871.06
2023-08-09T08:17:48.222Z,99870.50
2023-08-09T08:20:20.761Z,99872.03
2023-08-09T08:22:50.668Z,99871.63
2023-08-09T08:25:21.214Z,99875.59
2023-08-09T08:27:48.957Z,99875.19
2023-08-09T08:30:18.641Z,99878.81
2023-08-09T08:32:47.569Z,99886.97
2023-08-09T08:35:20.172Z,99876.41
2023-08-09T08:37:50.543Z,99875.72
2023-08-09T08:40:22.987Z,99872.50
2023-08-09T08:42:51.331Z,99870.22
2023-08-09T08:45:21.014Z,99867.13
2023-08-09T08:47:49.395Z,99873.94
2023-08-09T08:50:18.587Z,99863.44
2023-08-09T08:52:49.938Z,99867.59
2023-08-09T08:55:17.737Z,99880.13
2023-08-09T08:57:48.861Z,99876.56
2023-08-09T09:02:48.480Z,99876.94
2023-08-09T09:05:19.864Z,99882.19
2023-08-09T09:07:52.127Z,99879.44
2023-08-09T09:10:22.257Z,99885.88
2023-08-09T09:12:52.444Z,99892.56
2023-08-09T09:15:20.661Z,99887.41
2023-08-09T09:17:49.687Z,99895.53
2023-08-09T09:20:30.941Z,99891.16
2023-08-09T09:23:00.797Z,99883.50
2023-08-09T09:25:28.850Z,99892.25
2023-08-09T09:27:58.187Z,99888.50
2023-08-09T09:30:30.840Z,99892.06
2023-08-09T09:33:00.634Z,99894.84
2023-08-09T09:35:30.380Z,99884.81
2023-08-09T09:38:00.547Z,99895.63
2023-08-09T09:40:35.957Z,99897.69
2023-08-09T09:43:08.495Z,99894.06
2023-08-09T09:45:38.770Z,99885.31
2023-08-09T09:48:18.266Z,99888.78
2023-08-09T09:50:46.486Z,99881.16
2023-08-09T09:53:15.483Z,99881.47
2023-08-09T09:55:43.348Z,99893.53
2023-08-09T09:58:10.736Z,99890.16
2023-08-09T10:00:43.183Z,99883.22
2023-08-09T10:03:12.189Z,99872.38
2023-08-09T10:05:46.286Z,99886.53
2023-08-09T10:08:16.074Z,99875.78
2023-08-09T10:10:45.494Z,99871.63
2023-08-09T10:13:21.266Z,99885.13
2023-08-09T10:15:54.754Z,99869.53
2023-08-09T10:18:27.788Z,99886.63
2023-08-09T10:20:58.685Z,99881.59
2023-08-09T10:23:29.740Z,99878.00
2023-08-09T10:25:58.359Z,99873.81
2023-08-09T10:28:45.848Z,99873.13
2023-08-09T10:31:21.247Z,99865.69
2023-08-09T10:34:08.978Z,99886.88
2023-08-09T10:36:36.651Z,99879.53
2023-08-09T10:39:15.748Z,99864.41
2023-08-09T10:41:56.728Z,99885.97
2023-08-09T10:44:43.106Z,99884.78
2023-08-09T10:47:19.776Z,99875.84
2023-08-09T10:49:50.237Z,99898.13
2023-08-09T10:52:22.095Z,99892.56
2023-08-09T10:55:30.125Z,99877.88
2023-08-09T10:58:00.010Z,99880.78
2023-08-09T11:00:29.866Z,99880.16
2023-08-09T11:03:00.590Z,99888.47
2023-08-09T11:05:29.039Z,99882.06
2023-08-09T11:07:58.737Z,99894.28
2023-08-09T11:10:40.736Z,99885.38
2023-08-09T11:13:20.159Z,99893.75
2023-08-09T11:15:49.871Z,99881.56
2023-08-09T11:18:17.740Z,99880.03
2023-08-09T11:20:46.357Z,99883.81
2023-08-09T11:23:14.442Z,99887.31
2023-08-09T11:25:41.894Z,99880.38
2023-08-09T11:28:14.375Z,99889.50
2023-08-09T11:30:42.174Z,99890.31
2023-08-09T11:33:12.214Z,99890.63
2023-08-09T11:35:46.832Z,99894.94
2023-08-09T11:38:17.031Z,99898.09
2023-08-09T11:40:47.780Z,99904.94
2023-08-09T11:43:19.898Z,99898.50
2023-08-09T11:45:59.018Z,99911.38
2023-08-09T11:48:30.778Z,99918.28
2023-08-09T11:51:14.518Z,99913.75
2023-08-09T11:53:45.156Z,99917.16
2023-08-09T11:56:20.644Z,99912.50
2023-08-09T11:58:55.685Z,99901.88
2023-08-09T12:01:31.665Z,99902.63
2023-08-09T12:04:00.880Z,99902.03
2023-08-09T12:06:41.685Z,99898.22
2023-08-09T12:09:35.801Z,99912.94
2023-08-09T12:12:10.743Z,99895.84
2023-08-09T12:14:46.459Z,99906.03
2023-08-09T12:17:26.298Z,99908.81
2023-08-09T12:19:59.218Z,99890.50
2023-08-09T12:22:27.486Z,99901.22
2023-08-09T12:24:56.241Z,99911.41
2023-08-09T12:27:23.932Z,99909.63
2023-08-09T12:29:51.693Z,99915.69
2023-08-09T12:32:19.383Z,99909.22
2023-08-09T12:34:49.461Z,99907.03
2023-08-09T12:37:17.671Z,99909.28
2023-08-09T12:39:45.503Z,99908.31
2023-08-09T12:42:12.916Z,99917.97
2023-08-09T12:44:40.664Z,99911.34
2023-08-09T12:47:10.665Z,99907.44
2023-08-09T12:49:39.657Z,99922.34
2023-08-09T12:52:07.186Z,99910.81
2023-08-09T12:54:34.911Z,99915.91
2023-08-09T12:57:02.526Z,99913.22
2023-08-09T12:59:30.323Z,99911.28
2023-08-09T13:01:57.786Z,99915.94
2023-08-09T13:04:25.915Z,99925.25
2023-08-09T13:06:54.867Z,99931.72
2023-08-09T13:09:22.871Z,99923.50
2023-08-09T13:11:50.449Z,99917.69
2023-08-09T13:14:18.487Z,99926.22
2023-08-09T13:16:45.851Z,99929.13
2023-08-09T13:19:13.476Z,99925.06
2023-08-09T13:21:40.859Z,99934.50
2023-08-09T13:24:09.726Z,99931.81
2023-08-09T13:26:37.138Z,99934.31
2023-08-09T13:29:05.041Z,99936.94
2023-08-09T13:31:32.509Z,99926.97
2023-08-09T13:34:00.289Z,99934.56
2023-08-09T13:36:27.832Z,99943.19
2023-08-09T13:38:55.515Z,99948.50
2023-08-09T13:41:22.923Z,99934.47
2023-08-09T13:43:51.014Z,99925.75
2023-08-09T13:46:18.405Z,99943.19
2023-08-09T13:48:46.159Z,99945.22
2023-08-09T13:51:13.489Z,99946.75
2023-08-09T13:53:41.129Z,99951.69
2023-08-09T13:56:08.417Z,99944.94
2023-08-09T13:58:36.045Z,99942.03
2023-08-09T14:01:03.421Z,99950.78
2023-08-09T14:03:31.035Z,99944.19
2023-08-09T14:05:58.437Z,99938.84
2023-08-09T14:08:26.162Z,99947.28
2023-08-09T14:10:53.469Z,99959.47
2023-08-09T14:13:21.438Z,99954.69
2023-08-09T14:15:50.033Z,99961.44
2023-08-09T14:18:17.814Z,99963.03
2023-08-09T14:20:45.411Z,99960.31
2023-08-09T14:23:13.533Z,99966.47
2023-08-09T14:25:42.495Z,99978.75
2023-08-09T14:28:10.147Z,99983.41
2023-08-09T14:30:37.675Z,99979.09
2023-08-09T14:33:06.778Z,99989.19
2023-08-09T14:35:34.162Z,99981.72
2023-08-09T14:38:01.745Z,99984.47
2023-08-09T14:40:29.141Z,99983.72
2023-08-09T14:42:56.775Z,99987.97
2023-08-09T14:45:24.194Z,99994.84
2023-08-09T14:47:51.988Z,99998.06
2023-08-09T14:50:19.468Z,99999.94
2023-08-09T14:52:47.381Z,100004.97
2023-08-09T14:55:15.211Z,100004.47
2023-08-09T14:57:42.934Z,100012.22
2023-08-09T15:00:15.051Z,100015.47
2023-08-09T15:02:44.565Z,100025.09
2023-08-09T15:05:12.937Z,100022.13
2023-08-09T15:07:41.133Z,100022.09
2023-08-09T15:10:08.916Z,100033.47
2023-08-09T15:12:36.648Z,100020.16
2023-08-09T15:15:05.758Z,100022.91
2023-08-09T15:17:33.597Z,100038.44
2023-08-09T15:20:01.382Z,100043.56
2023-08-09T15:22:29.226Z,100046.09
2023-08-09T15:25:01.069Z,100042.03
2023-08-09T15:27:28.856Z,100059.28
2023-08-09T15:29:56.192Z,100061.19
2023-08-09T15:32:23.844Z,100060.66
2023-08-09T15:37:18.679Z,100056.41
2023-08-09T15:39:46.083Z,100061.97
2023-08-09T15:42:18.558Z,100065.19
2023-08-09T15:44:47.604Z,100072.22
2023-08-09T15:47:19.581Z,100069.56
2023-08-09T15:49:48.905Z,100069.88
2023-08-09T15:52:17.812Z,100078.56
2023-08-09T15:54:46.170Z,100075.84
2023-08-09T15:57:13.975Z,100084.03
2023-08-09T15:59:44.487Z,100095.88
2023-08-09T16:02:14.778Z,100106.25
2023-08-09T16:04:43.287Z,100116.97
2023-08-09T16:07:12.060Z,100115.38
2023-08-09T16:09:40.112Z,100109.53
2023-08-09T16:12:10.573Z,100112.00
2023-08-09T16:14:41.266Z,100124.16
2023-08-09T16:17:08.992Z,100118.03
2023-08-09T16:19:36.482Z,100120.69
2023-08-09T16:22:04.775Z,100127.16
2023-08-09T16:24:32.320Z,100127.13
2023-08-09T16:26:59.944Z,100123.97
2023-08-09T16:29:27.836Z,100123.94
2023-08-09T16:31:55.525Z,100129.44
2023-08-09T16:34:22.869Z,100128.63
2023-08-09T16:36:50.487Z,100136.38
2023-08-09T16:39:17.832Z,100130.13
2023-08-09T16:41:45.604Z,100143.91
2023-08-09T16:44:13.063Z,100136.84
2023-08-09T16:46:42.244Z,100134.38
2023-08-09T16:49:10.870Z,100155.00
2023-08-09T16:51:38.499Z,100155.44
2023-08-09T16:54:07.853Z,100155.06
2023-08-09T16:56:36.604Z,100158.41
2023-08-09T16:59:04.211Z,100150.03
2023-08-09T17:01:31.995Z,100156.28
2023-08-09T17:03:59.503Z,100168.44
2023-08-09T17:06:27.097Z,100165.16
2023-08-09T17:08:54.590Z,100162.63
2023-08-09T17:11:23.288Z,100156.94
2023-08-09T17:13:50.997Z,100171.78
2023-08-09T17:16:20.007Z,100169.34
2023-08-09T17:18:47.540Z,100173.69
2023-08-09T17:21:15.189Z,100169.88
2023-08-09T17:23:42.652Z,100177.63
2023-08-09T17:26:12.555Z,100170.34
2023-08-09T17:28:43.165Z,100167.19
2023-08-09T17:31:10.833Z,100169.16
2023-08-09T17:33:38.245Z,100188.19
2023-08-09T17:36:07.029Z,100187.38
2023-08-09T17:38:35.937Z,100187.25
2023-08-09T17:41:03.577Z,100202.72
2023-08-09T17:43:32.553Z,100182.28
2023-08-09T17:46:00.301Z,100196.91
2023-08-09T17:48:27.734Z,100198.69
2023-08-09T17:50:55.377Z,100200.44
2023-08-09T17:53:23.124Z,100203.25
2023-08-09T17:55:50.738Z,100200.13
2023-08-09T17:58:18.200Z,100201.72
2023-08-09T18:00:45.835Z,100200.47
2023-08-09T18:03:13.552Z,100210.19
2023-08-09T18:05:41.489Z,100203.81
2023-08-09T18:08:09.202Z,100213.25
2023-08-09T18:10:36.975Z,100199.84
2023-08-09T18:13:04.597Z,100216.44
2023-08-09T18:15:32.417Z,100225.28
2023-08-09T18:17:59.811Z,100222.47
2023-08-09T18:20:27.491Z,100220.81
2023-08-09T18:22:54.968Z,100230.94
2023-08-09T18:25:23.236Z,100234.72
2023-08-09T18:27:50.546Z,100226.97
2023-08-09T18:30:18.250Z,100229.75
2023-08-09T18:32:46.459Z,100232.47
2023-08-09T18:35:18.531Z,100235.41
2023-08-09T18:37:50.001Z,100244.50
2023-08-09T18:40:18.203Z,100235.75
2023-08-09T18:42:47.165Z,100239.78
2023-08-09T18:45:16.701Z,100230.34
2023-08-09T18:47:44.679Z,100249.44
2023-08-09T18:50:12.734Z,100249.13
2023-08-09T18:52:41.012Z,100248.16
2023-08-09T18:55:09.309Z,100252.72
2023-08-09T18:57:37.315Z,100255.56
2023-08-09T19:00:06.545Z,100247.56
2023-08-09T19:02:34.546Z,100245.34
2023-08-09T19:05:02.437Z,100248.63
2023-08-09T19:07:29.992Z,100250.38
2023-08-09T19:09:57.628Z,100251.03
2023-08-09T19:12:25.336Z,100241.44
2023-08-09T19:14:52.914Z,100237.22
2023-08-09T19:17:20.334Z,100247.94
2023-08-09T19:19:47.986Z,100264.19
2023-08-09T19:22:15.392Z,100267.63
2023-08-09T19:24:43.332Z,100272.34
2023-08-09T19:27:10.662Z,100268.16
2023-08-09T19:29:38.419Z,100265.59
2023-08-09T19:32:05.978Z,100279.50
2023-08-09T19:34:36.471Z,100277.44
2023-08-09T19:37:05.228Z,100281.00
2023-08-09T19:39:33.603Z,100280.88
2023-08-09T19:42:02.241Z,100279.84
2023-08-09T19:44:29.981Z,100283.50
2023-08-09T19:46:57.804Z,100275.03
2023-08-09T19:49:25.504Z,100270.66
2023-08-09T19:51:54.742Z,100274.72
2023-08-09T19:54:22.424Z,100283.66
2023-08-09T19:56:49.829Z,100296.00
2023-08-09T19:59:17.471Z,100300.53
2023-08-09T20:01:45.014Z,100301.00
2023-08-09T20:04:13.410Z,100297.16
2023-08-09T20:06:40.894Z,100299.19
2023-08-09T20:09:08.649Z,100297.22
2023-08-09T20:11:36.107Z,100300.41
2023-08-09T20:14:03.854Z,100306.00
2023-08-09T20:16:32.820Z,100308.38
2023-08-09T20:19:00.811Z,100307.75
2023-08-09T20:21:28.376Z,100294.00
2023-08-09T20:23:55.996Z,100299.59
2023-08-09T20:26:23.431Z,100295.72
2023-08-09T20:28:51.136Z,100294.31
2023-08-09T20:31:19.613Z,100300.41
2023-08-09T20:33:47.631Z,100307.75
2023-08-09T20:36:14.996Z,100306.06
2023-08-09T20:38:42.778Z,100311.50
2023-08-09T20:41:10.193Z,100318.09
2023-08-09T20:43:37.858Z,100322.88
2023-08-09T20:46:05.329Z,100325.09
2023-08-09T20:48:33.037Z,100329.31
2023-08-09T20:51:00.607Z,100336.13
2023-08-09T20:53:28.433Z,100319.91
2023-08-09T20:55:55.798Z,100326.63
2023-08-09T20:58:23.509Z,100339.28
2023-08-09T21:00:51.117Z,100327.06
2023-08-09T21:03:19.917Z,100335.69
2023-08-09T21:05:57.235Z,100335.19
2023-08-09T21:08:24.897Z,100335.19
2023-08-09T21:10:53.587Z,100337.41
2023-08-09T21:13:21.301Z,100341.25
2023-08-09T21:15:48.793Z,100339.94
2023-08-09T21:18:16.849Z,100339.94
2023-08-09T21:20:44.807Z,100339.88
2023-08-09T21:23:13.083Z,100335.34
2023-08-09T21:25:43.619Z,100335.91
2023-08-09T21:28:12.632Z,100332.72
2023-08-09T21:30:40.588Z,100339.63
2023-08-09T21:33:09.658Z,100343.72
2023-08-09T21:35:37.357Z,100346.59
2023-08-09T21:38:06.250Z,100348.13
2023-08-09T21:40:33.614Z,100356.38
2023-08-09T21:43:01.310Z,100353.00
2023-08-09T21:45:28.644Z,100351.28
2023-08-09T21:47:56.517Z,100351.84
2023-08-09T21:50:23.917Z,100354.38
2023-08-09T21:52:51.580Z,100343.72
2023-08-09T21:55:18.948Z,100347.97
2023-08-09T21:57:46.494Z,100355.28
2023-08-09T22:00:15.068Z,100352.22
2023-08-09T22:02:43.094Z,100350.88
2023-08-09T22:05:10.544Z,100342.13
2023-08-09T22:07:38.112Z,100348.53
2023-08-09T22:10:05.950Z,100346.16
2023-08-09T22:12:33.627Z,100349.84
2023-08-09T22:15:00.966Z,100347.28
2023-08-09T22:17:28.723Z,100344.94
2023-08-09T22:19:56.323Z,100346.28
2023-08-09T22:22:24.044Z,100351.56
2023-08-09T22:24:51.389Z,100354.28
2023-08-09T22:27:19.047Z,100359.03
2023-08-09T22:29:46.363Z,100355.84
2023-08-09T22:32:13.964Z,100357.53
2023-08-09T22:34:41.317Z,100354.50
2023-08-09T22:37:09.164Z,100366.31
2023-08-09T22:39:36.510Z,100353.00
2023-08-09T22:42:04.602Z,100356.69
2023-08-09T22:44:32.341Z,100351.81
2023-08-09T22:47:02.016Z,100351.78
2023-08-09T22:49:29.677Z,100352.66
2023-08-09T22:51:57.608Z,100346.53
2023-08-09T22:54:25.009Z,100357.69
2023-08-09T22:56:52.611Z,100347.22
2023-08-09T22:59:19.882Z,100356.38
2023-08-09T23:01:47.471Z,100361.63
2023-08-09T23:04:14.898Z,100357.03
2023-08-09T23:06:42.671Z,100356.34
2023-08-09T23:09:10.677Z,100356.38
2023-08-09T23:11:38.017Z,100366.50
2023-08-09T23:14:05.914Z,100361.78
2023-08-09T23:16:33.353Z,100368.84
2023-08-09T23:19:01.044Z,100376.63
2023-08-09T23:21:28.352Z,100370.56
2023-08-09T23:23:56.015Z,100375.81
2023-08-09T23:26:23.382Z,100377.47
2023-08-09T23:28:51.045Z,100389.84
2023-08-09T23:31:18.460Z,100393.72
2023-08-09T23:33:46.366Z,100387.47
2023-08-09T23:36:13.734Z,100391.34
2023-08-09T23:38:41.377Z,100395.91
2023-08-09T23:41:09.236Z,100396.94
2023-08-09T23:43:37.344Z,100399.16
2023-08-09T23:46:05.934Z,100389.84
2023-08-09T23:48:33.859Z,100391.19
2023-08-09T23:51:01.293Z,100392.84
2023-08-09T23:53:30.440Z,100390.00
2023-08-09T23:55:57.913Z,100396.56
2023-08-09T23:58:25.912Z,100403.19
